createdAt,value
2023-10-04T00:00:51.670Z,100932.88
2023-10-04T00:01:55.435Z,100936.47
2023-10-04T00:02:59.546Z,100939.25
2023-10-04T00:04:03.727Z,100934.50
2023-10-04T00:05:08.052Z,100944.88
2023-10-04T00:06:11.966Z,100942.09
2023-10-04T00:07:15.837Z,100922.13
2023-10-04T00:08:19.697Z,100938.91
2023-10-04T00:09:23.561Z,100939.31
2023-10-04T00:10:27.404Z,100928.94
2023-10-04T00:11:31.355Z,100932.56
2023-10-04T00:12:36.805Z,100941.69
2023-10-04T00:13:40.652Z,100932.16
2023-10-04T00:14:44.473Z,100926.16
2023-10-04T00:15:48.295Z,100931.75
2023-10-04T00:16:52.269Z,100938.13
2023-10-04T00:17:56.455Z,100951.28
2023-10-04T00:19:00.462Z,100940.53
2023-10-04T00:20:04.386Z,100952.13
2023-10-04T00:21:08.463Z,100946.56
2023-10-04T00:22:12.404Z,100939.31
2023-10-04T00:23:16.218Z,100952.94
2023-10-04T00:24:20.034Z,100951.38
2023-10-04T00:25:24.121Z,100952.53
2023-10-04T00:26:27.894Z,100955.72
2023-10-04T00:27:31.845Z,100934.13
2023-10-04T00:28:37.703Z,100941.34
2023-10-04T00:29:41.840Z,100961.28
2023-10-04T00:30:45.649Z,100957.25
2023-10-04T00:31:49.535Z,100955.66
2023-10-04T00:32:53.800Z,100966.88
2023-10-04T00:34:00.204Z,100967.25
2023-10-04T00:35:04.262Z,100973.25
2023-10-04T00:36:08.158Z,100975.97
2023-10-04T00:37:12.004Z,100977.53
2023-10-04T00:38:15.927Z,100952.00
2023-10-04T00:39:19.869Z,100967.56
2023-10-04T00:40:25.848Z,100979.19
2023-10-04T00:41:29.889Z,100985.94
2023-10-04T00:42:33.993Z,100982.41
2023-10-04T00:43:50.653Z,100984.84
2023-10-04T00:44:54.655Z,100991.19
2023-10-04T00:45:58.608Z,100988.00
2023-10-04T00:47:02.483Z,100992.81
2023-10-04T00:48:09.421Z,100990.41
2023-10-04T00:49:13.432Z,100983.66
2023-10-04T00:50:17.946Z,100985.63
2023-10-04T00:51:22.277Z,100977.28
2023-10-04T00:52:26.191Z,100985.28
2023-10-04T00:53:30.292Z,100980.13
2023-10-04T00:54:34.312Z,100986.09
2023-10-04T00:55:38.841Z,100982.88
2023-10-04T00:56:42.840Z,100995.22
2023-10-04T00:57:48.175Z,100991.63
2023-10-04T00:58:54.907Z,100990.00
2023-10-04T00:59:59.085Z,100991.22
2023-10-04T01:01:02.938Z,100993.19
2023-10-04T01:02:07.862Z,100983.66
2023-10-04T01:03:12.164Z,100990.44
2023-10-04T01:04:16.348Z,100994.84
2023-10-04T01:05:20.307Z,101000.00
2023-10-04T01:06:24.639Z,100998.81
2023-10-04T01:07:28.585Z,100994.44
2023-10-04T01:08:32.785Z,100974.44
2023-10-04T01:09:36.636Z,100996.06
2023-10-04T01:10:40.621Z,101005.22
2023-10-04T01:11:50.572Z,101010.78
2023-10-04T01:12:54.496Z,101001.22
2023-10-04T01:13:59.857Z,100988.44
2023-10-04T01:15:03.652Z,100998.41
2023-10-04T01:16:07.460Z,100980.44
2023-10-04T01:17:11.285Z,100993.22
2023-10-04T01:18:15.654Z,100989.22
2023-10-04T01:19:19.495Z,100987.22
2023-10-04T01:20:23.543Z,100988.34
2023-10-04T01:21:27.263Z,101000.38
2023-10-04T01:22:32.936Z,100997.97
2023-10-04T01:23:36.839Z,100993.19
2023-10-04T01:24:40.594Z,101007.16
2023-10-04T01:25:45.941Z,100993.66
2023-10-04T01:26:49.793Z,101002.50
2023-10-04T01:27:53.515Z,101003.69
2023-10-04T01:28:57.460Z,101008.47
2023-10-04T01:30:01.244Z,101001.72
2023-10-04T01:31:05.021Z,101016.09
2023-10-04T01:32:08.803Z,101010.16
2023-10-04T01:33:13.296Z,101006.56
2023-10-04T01:34:17.145Z,101012.94
2023-10-04T01:35:20.933Z,101020.13
2023-10-04T01:36:24.727Z,101024.09
2023-10-04T01:37:28.503Z,101006.94
2023-10-04T01:38:33.918Z,101028.94
2023-10-04T01:39:37.973Z,101023.38
2023-10-04T01:40:41.798Z,101032.97
2023-10-04T01:41:45.573Z,101030.16
2023-10-04T01:42:49.377Z,101009.44
2023-10-04T01:43:53.162Z,101033.38
2023-10-04T01:44:57.514Z,101027.78
2023-10-04T01:46:02.152Z,101014.19
2023-10-04T01:47:06.002Z,101038.97
2023-10-04T01:48:09.802Z,101043.41
2023-10-04T01:49:13.570Z,101041.03
2023-10-04T01:50:17.537Z,101045.03
2023-10-04T01:51:21.418Z,101041.84
2023-10-04T01:52:25.200Z,101051.84
2023-10-04T01:53:28.901Z,101054.63
2023-10-04T01:54:34.455Z,101058.63
2023-10-04T01:55:38.394Z,101059.41
2023-10-04T01:56:42.240Z,101043.88
2023-10-04T01:57:46.495Z,101057.44
2023-10-04T01:58:50.227Z,101051.84
2023-10-04T01:59:54.099Z,101041.13
2023-10-04T02:00:58.020Z,101043.09
2023-10-04T02:02:02.003Z,101041.56
2023-10-04T02:03:09.062Z,101045.94
2023-10-04T02:04:13.071Z,101046.34
2023-10-04T02:05:17.145Z,101038.75
2023-10-04T02:06:21.062Z,101044.34
2023-10-04T02:07:25.184Z,101041.19
2023-10-04T02:08:28.933Z,101041.16
2023-10-04T02:09:34.453Z,101037.19
2023-10-04T02:10:38.520Z,101043.25
2023-10-04T02:11:42.610Z,101038.84
2023-10-04T02:12:46.480Z,101034.03
2023-10-04T02:13:50.231Z,101039.63
2023-10-04T02:14:54.089Z,101044.81
2023-10-04T02:15:58.060Z,101047.63
2023-10-04T02:17:02.024Z,101035.22
2023-10-04T02:18:06.409Z,101039.63
2023-10-04T02:19:10.993Z,101046.03
2023-10-04T02:20:15.892Z,101027.69
2023-10-04T02:21:19.642Z,101048.44
2023-10-04T02:22:23.441Z,101049.59
2023-10-04T02:23:27.318Z,101044.00
2023-10-04T02:24:31.082Z,101050.41
2023-10-04T02:25:36.538Z,101050.81
2023-10-04T02:26:40.294Z,101044.81
2023-10-04T02:27:44.133Z,101040.00
2023-10-04T02:28:47.884Z,101044.81
2023-10-04T02:29:51.632Z,101050.41
2023-10-04T02:30:55.604Z,101050.41
2023-10-04T02:31:59.804Z,101050.75
2023-10-04T02:33:03.867Z,101046.00
2023-10-04T02:34:07.946Z,101053.19
2023-10-04T02:35:13.544Z,101038.06
2023-10-04T02:36:17.349Z,101054.03
2023-10-04T02:37:21.210Z,101052.81
2023-10-04T02:38:25.216Z,101046.00
2023-10-04T02:39:29.090Z,101047.22
2023-10-04T02:40:33.040Z,101058.00
2023-10-04T02:41:38.442Z,101040.44
2023-10-04T02:42:42.188Z,101057.59
2023-10-04T02:43:45.950Z,101056.81
2023-10-04T02:44:49.678Z,101051.63
2023-10-04T02:45:53.640Z,101046.81
2023-10-04T02:46:57.592Z,101042.06
2023-10-04T02:48:01.449Z,101062.81
2023-10-04T02:49:05.492Z,101048.84
2023-10-04T02:50:09.809Z,101048.41
2023-10-04T02:51:13.662Z,101052.00
2023-10-04T02:52:17.427Z,101053.25
2023-10-04T02:53:21.782Z,101048.00
2023-10-04T02:54:25.584Z,101032.84
2023-10-04T02:55:29.303Z,101048.00
2023-10-04T02:56:33.207Z,101044.44
2023-10-04T02:57:38.724Z,101058.00
2023-10-04T02:58:42.476Z,101057.59
2023-10-04T02:59:46.228Z,101054.41
2023-10-04T03:00:50.089Z,101058.00
2023-10-04T03:01:54.016Z,101058.00
2023-10-04T03:02:57.782Z,101053.22
2023-10-04T03:04:01.561Z,101053.63
2023-10-04T03:05:05.738Z,101058.41
2023-10-04T03:06:09.750Z,101058.81
2023-10-04T03:07:13.655Z,101061.97
2023-10-04T03:08:17.441Z,101062.38
2023-10-04T03:09:21.362Z,101056.38
2023-10-04T03:10:26.171Z,101058.78
2023-10-04T03:11:29.960Z,101061.19
2023-10-04T03:12:33.842Z,101062.38
2023-10-04T03:13:39.341Z,101061.56
2023-10-04T03:14:43.092Z,101062.75
2023-10-04T03:15:47.005Z,101061.94
2023-10-04T03:16:50.868Z,101060.34
2023-10-04T03:17:55.493Z,101049.97
2023-10-04T03:18:59.564Z,101058.34
2023-10-04T03:20:03.517Z,101054.38
2023-10-04T03:21:07.331Z,101044.78
2023-10-04T03:22:11.113Z,101056.75
2023-10-04T03:23:14.830Z,101045.59
2023-10-04T03:24:18.571Z,101054.78
2023-10-04T03:25:22.481Z,101055.19
2023-10-04T03:26:26.426Z,101050.44
2023-10-04T03:27:30.606Z,101048.41
2023-10-04T03:28:35.912Z,101051.22
2023-10-04T03:29:41.402Z,101052.03
2023-10-04T03:30:45.343Z,101050.44
2023-10-04T03:31:49.160Z,101022.47
2023-10-04T03:32:53.129Z,101048.81
2023-10-04T03:34:03.204Z,101043.22
2023-10-04T20:01:44.813Z,65344.78
2023-10-04T20:02:49.377Z,65344.78
2023-10-04T20:03:53.573Z,65344.78
2023-10-04T20:04:57.733Z,65344.78
2023-10-04T20:06:01.779Z,65344.78
2023-10-04T20:07:05.811Z,65344.78
2023-10-04T20:08:09.700Z,65344.78
2023-10-04T20:09:13.566Z,65344.78
2023-10-04T20:10:18.633Z,65344.78
2023-10-04T20:11:22.604Z,65344.78
2023-10-04T20:12:26.608Z,65344.78
2023-10-04T20:13:30.637Z,65344.78
2023-10-04T20:14:34.480Z,65344.78
2023-10-04T20:15:38.550Z,65344.78
2023-10-04T20:16:44.050Z,65344.78
2023-10-04T20:17:47.902Z,65344.78
2023-10-04T20:18:51.856Z,65344.78
2023-10-04T20:19:55.671Z,65344.78
2023-10-04T20:20:59.471Z,65344.78
2023-10-04T20:22:03.244Z,65344.78
2023-10-04T20:23:07.348Z,65344.78
2023-10-04T20:24:11.097Z,65344.78
2023-10-04T20:25:15.014Z,65344.78
2023-10-04T20:26:19.097Z,65344.78
2023-10-04T20:27:22.977Z,65344.78
2023-10-04T20:28:26.834Z,65344.78
2023-10-04T20:29:30.731Z,65344.78
2023-10-04T20:30:34.672Z,65344.78
2023-10-04T20:31:38.742Z,65344.78
2023-10-04T20:32:45.257Z,65344.78
2023-10-04T20:33:49.000Z,65344.78
2023-10-04T20:34:52.949Z,65344.78
2023-10-04T20:35:56.787Z,65344.78
2023-10-04T20:37:00.572Z,65344.78
2023-10-04T20:38:04.484Z,65344.78
2023-10-04T20:39:08.308Z,65344.78
2023-10-04T20:40:12.785Z,65344.78
2023-10-04T20:41:16.812Z,65344.78
2023-10-04T20:42:20.762Z,65344.78
2023-10-04T20:43:24.531Z,65344.78
2023-10-04T20:44:28.264Z,65344.78
2023-10-04T20:45:32.438Z,65344.78
2023-10-04T20:46:36.506Z,65344.78
2023-10-04T20:47:40.678Z,65344.78
2023-10-04T20:48:46.215Z,65344.78
2023-10-04T20:49:49.969Z,65344.78
2023-10-04T20:50:53.676Z,65344.78
2023-10-04T20:51:58.060Z,65344.78
2023-10-04T20:53:01.952Z,65344.78
2023-10-04T20:54:06.254Z,65344.78
2023-10-04T20:55:10.788Z,65344.78
2023-10-04T20:56:14.605Z,65344.78
2023-10-04T20:57:18.470Z,65344.78
2023-10-04T20:58:22.274Z,65344.78
2023-10-04T20:59:26.075Z,65344.78
2023-10-04T21:00:29.866Z,65344.78
2023-10-04T21:01:33.775Z,65344.78
2023-10-04T21:02:37.604Z,65344.78
2023-10-04T21:03:41.437Z,65344.78
2023-10-04T21:04:47.394Z,65344.78
2023-10-04T21:05:51.401Z,65344.78
2023-10-04T21:06:55.300Z,65344.78
2023-10-04T21:08:00.672Z,65344.78
2023-10-04T21:09:04.671Z,65344.78
2023-10-04T21:10:09.493Z,65344.78
2023-10-04T21:11:13.493Z,65344.78
2023-10-04T21:12:17.326Z,65344.78
2023-10-04T21:13:21.171Z,65344.78
2023-10-04T21:14:24.927Z,65344.78
2023-10-04T21:15:28.769Z,65344.78
2023-10-04T21:16:32.669Z,65344.78
2023-10-04T21:17:36.445Z,65344.78
2023-10-04T21:18:40.522Z,65344.78
2023-10-04T21:19:45.937Z,65344.78
2023-10-04T21:20:49.851Z,65344.78
2023-10-04T21:21:53.662Z,65344.78
2023-10-04T21:22:57.528Z,65344.78
2023-10-04T21:24:15.139Z,65344.78
2023-10-04T21:25:21.636Z,65344.78
2023-10-04T21:26:25.397Z,65344.78
2023-10-04T21:27:29.367Z,65344.78
2023-10-04T21:28:33.369Z,65344.78
2023-10-04T21:29:37.193Z,65344.78
2023-10-04T21:30:41.077Z,65344.78
2023-10-04T21:31:45.264Z,65344.78
2023-10-04T21:32:49.234Z,65344.78
2023-10-04T21:33:53.408Z,65344.78
2023-10-04T21:34:58.979Z,65344.78
2023-10-04T21:36:02.816Z,65344.78
2023-10-04T21:37:09.617Z,65344.78
2023-10-04T21:38:13.513Z,65344.78
2023-10-04T21:39:17.589Z,65344.78
2023-10-04T21:40:21.515Z,65344.78
2023-10-04T21:41:25.371Z,65344.78
2023-10-04T21:42:29.050Z,65344.78
2023-10-04T21:43:32.871Z,65344.78
2023-10-04T21:44:36.623Z,65344.78
2023-10-04T21:45:40.379Z,65344.78
2023-10-04T21:46:44.187Z,65344.78
2023-10-04T21:47:48.066Z,65344.78
2023-10-04T21:48:52.320Z,65344.78
2023-10-04T21:49:58.542Z,65344.78
2023-10-04T21:51:02.303Z,65344.78
2023-10-04T21:52:06.479Z,65344.78
2023-10-04T21:53:10.531Z,65344.78
2023-10-04T21:54:14.414Z,65344.78
2023-10-04T21:55:18.154Z,65344.78
2023-10-04T21:56:21.857Z,65344.78
2023-10-04T21:57:25.566Z,65344.78
2023-10-04T21:58:29.369Z,65344.78
2023-10-04T21:59:34.079Z,65344.78
2023-10-04T22:00:37.857Z,65344.78
2023-10-04T22:01:42.308Z,65344.78
2023-10-04T22:02:46.240Z,65344.78
2023-10-04T22:03:50.294Z,65344.78
2023-10-04T22:04:54.234Z,65344.78
2023-10-04T22:05:59.707Z,65344.78
2023-10-04T22:07:20.511Z,65344.78
2023-10-04T22:08:25.616Z,65344.78
2023-10-04T22:09:29.410Z,65344.78
2023-10-04T22:10:33.317Z,65344.78
2023-10-04T22:11:37.037Z,65344.78
2023-10-04T22:12:40.819Z,65344.78
2023-10-04T22:13:44.925Z,65344.78
2023-10-04T22:14:48.654Z,65344.78
2023-10-04T22:15:53.999Z,65344.78
2023-10-04T22:16:57.788Z,65344.78
2023-10-04T22:18:01.618Z,65344.78
2023-10-04T22:19:05.432Z,65344.78
2023-10-04T22:20:10.158Z,65344.78
2023-10-04T22:21:15.633Z,65344.78
2023-10-04T22:22:19.400Z,65344.78
2023-10-04T22:23:55.302Z,65344.78
2023-10-04T22:25:02.971Z,65344.78
2023-10-04T22:26:07.283Z,65344.78
2023-10-04T22:27:11.316Z,65344.78
2023-10-04T22:28:15.302Z,65344.78
2023-10-04T22:29:27.166Z,65344.78
2023-10-04T22:30:37.158Z,65344.78
2023-10-04T22:31:41.324Z,65344.78
2023-10-04T22:32:45.305Z,65344.78
2023-10-04T22:33:50.345Z,65344.78
2023-10-04T22:34:54.207Z,65344.78
2023-10-04T22:35:57.980Z,65344.78
2023-10-04T22:37:03.768Z,65344.78
2023-10-04T22:38:07.752Z,65344.78
2023-10-04T22:39:11.544Z,65344.78
2023-10-04T22:40:17.949Z,65344.78
2023-10-04T22:41:22.117Z,65344.78
2023-10-04T22:42:25.948Z,65344.78
2023-10-04T22:43:29.741Z,65344.78
2023-10-04T22:44:36.323Z,65344.78
2023-10-04T22:45:40.121Z,65344.78
2023-10-04T22:46:44.306Z,65344.78
2023-10-04T22:47:50.807Z,65344.78
2023-10-04T22:48:55.247Z,65344.78
2023-10-04T22:49:58.971Z,65344.78
2023-10-04T22:51:02.654Z,65344.78
2023-10-04T22:52:08.092Z,65344.78
2023-10-04T22:53:11.836Z,65344.78
2023-10-04T22:54:15.769Z,65344.78
2023-10-04T22:55:19.587Z,65344.78
2023-10-04T22:56:23.753Z,65344.78
2023-10-04T22:57:27.601Z,65344.78
2023-10-04T22:58:31.386Z,65344.78
2023-10-04T22:59:35.112Z,65344.78
2023-10-04T23:00:38.822Z,65344.78
2023-10-04T23:01:42.674Z,65344.78
2023-10-04T23:02:46.669Z,65344.78
2023-10-04T23:03:50.829Z,65344.78
2023-10-04T23:04:54.713Z,65344.78
2023-10-04T23:06:05.368Z,65344.78
2023-10-04T23:07:10.821Z,65344.78
2023-10-04T23:08:14.577Z,65344.78
2023-10-04T23:09:18.574Z,65344.78
2023-10-04T23:10:23.049Z,65344.78
2023-10-04T23:11:27.134Z,65344.78
2023-10-04T23:12:30.838Z,65344.78
2023-10-04T23:13:34.719Z,65344.78
2023-10-04T23:14:38.539Z,65344.78
2023-10-04T23:15:42.454Z,65344.78
2023-10-04T23:16:46.269Z,65344.78
2023-10-04T23:17:50.206Z,65344.78
2023-10-04T23:18:54.105Z,65344.78
2023-10-04T23:19:58.239Z,65344.78
2023-10-04T23:21:02.450Z,65344.78
2023-10-04T23:22:06.214Z,65344.78
2023-10-04T23:23:11.833Z,65344.78
2023-10-04T23:24:15.825Z,65344.78
2023-10-04T23:25:19.847Z,65344.78
2023-10-04T23:26:23.747Z,65344.78
2023-10-04T23:27:27.653Z,65344.78
2023-10-04T23:28:31.553Z,65344.78
2023-10-04T23:29:35.376Z,65344.78
2023-10-04T23:30:39.466Z,65344.78
2023-10-04T23:31:43.485Z,65344.78
2023-10-04T23:32:50.435Z,65344.78
2023-10-04T23:33:54.284Z,65344.78
2023-10-04T23:34:58.287Z,65344.78
2023-10-04T23:36:02.055Z,65344.78
2023-10-04T23:37:05.834Z,65344.78
2023-10-04T23:38:12.845Z,65344.78
2023-10-04T23:39:16.761Z,65344.78
2023-10-04T23:40:20.646Z,65344.78
2023-10-04T23:41:24.451Z,65344.78
2023-10-04T23:42:28.357Z,65344.78
2023-10-04T23:43:32.169Z,65344.78
2023-10-04T23:44:35.977Z,65344.78
2023-10-04T23:45:39.782Z,65344.78
2023-10-04T23:46:43.588Z,65344.78
2023-10-04T23:47:47.550Z,65344.78
2023-10-04T23:48:51.384Z,65344.78
2023-10-04T23:49:55.172Z,65344.78
2023-10-04T23:50:58.944Z,65344.78
2023-10-04T23:52:02.909Z,65344.78
2023-10-04T23:53:06.798Z,65344.78
2023-10-04T23:54:12.483Z,65344.78
2023-10-04T23:55:16.420Z,65344.78
2023-10-04T23:56:20.257Z,65344.78
2023-10-04T23:57:24.169Z,65344.78
2023-10-04T23:58:27.947Z,65344.78
2023-10-04T23:59:31.922Z,65344.78
